createdAt,value
2022-10-01T00:00:00.255Z,100140
2022-10-01T00:01:00.199Z,100140
2022-10-01T00:02:00.356Z,100120
2022-10-01T00:03:00.510Z,100120
2022-10-01T00:04:00.255Z,100110
2022-10-01T00:05:00.150Z,100110
2022-10-01T00:06:01.422Z,100090
2022-10-01T00:07:00.156Z,100090
2022-10-01T00:08:00.165Z,100100
2022-10-01T00:09:00.156Z,100100
2022-10-01T00:10:00.149Z,100080
2022-10-01T00:11:00.154Z,100080
2022-10-01T00:12:00.149Z,100090
2022-10-01T00:13:00.164Z,100090
2022-10-01T00:14:00.157Z,100080
2022-10-01T00:15:04.251Z,100080
2022-10-01T00:16:02.683Z,100080
2022-10-01T00:17:00.374Z,100080
2022-10-01T00:18:00.168Z,100070
2022-10-01T00:19:00.166Z,100070
2022-10-01T00:20:00.259Z,100060
2022-10-01T00:21:03.837Z,100060
2022-10-01T00:22:00.355Z,100070
2022-10-01T00:23:00.156Z,100070
2022-10-01T00:24:01.570Z,100070
2022-10-01T00:25:00.186Z,100070
2022-10-01T00:26:10.084Z,100070
2022-10-01T00:27:00.156Z,100070
2022-10-01T00:28:00.347Z,100050
2022-10-01T00:29:01.391Z,100050
2022-10-01T00:30:00.557Z,100060
2022-10-01T00:31:00.191Z,100060
2022-10-01T00:32:00.242Z,100060
2022-10-01T00:33:00.156Z,100060
2022-10-01T00:34:00.683Z,100040
2022-10-01T00:35:00.554Z,100040
2022-10-01T00:36:00.244Z,100050
2022-10-01T00:37:00.183Z,100050
2022-10-01T00:38:00.160Z,100050
2022-10-01T00:39:00.160Z,100050
2022-10-01T00:40:00.271Z,100040
2022-10-01T00:41:00.384Z,100040
2022-10-01T00:42:00.147Z,100040
2022-10-01T00:43:00.167Z,100040
2022-10-01T00:44:01.826Z,100030
2022-10-01T00:45:00.164Z,100030
2022-10-01T00:46:03.457Z,100020
2022-10-01T00:47:03.705Z,100020
2022-10-01T00:48:00.315Z,100030
2022-10-01T00:49:00.136Z,100030
2022-10-01T00:50:03.413Z,100040
2022-10-01T00:51:00.453Z,100040
2022-10-01T00:52:02.397Z,100040
2022-10-01T00:53:01.930Z,100040
2022-10-01T00:54:03.811Z,100040
2022-10-01T00:55:03.920Z,100040
2022-10-01T00:56:00.331Z,100030
2022-10-01T00:57:01.387Z,100030
2022-10-01T00:58:00.158Z,100040
2022-10-01T00:59:00.599Z,100040
2022-10-01T01:00:01.459Z,100030
2022-10-01T01:01:00.276Z,100030
2022-10-01T01:02:00.308Z,100020
2022-10-01T01:03:00.249Z,100020
2022-10-01T01:04:00.293Z,100020
2022-10-01T01:05:00.623Z,100020
2022-10-01T01:06:00.166Z,100020
2022-10-01T01:07:01.557Z,100020
2022-10-01T01:08:00.623Z,100010
2022-10-01T01:09:00.204Z,100010
2022-10-01T01:10:01.013Z,100020
2022-10-01T01:11:01.184Z,100020
2022-10-01T01:12:10.101Z,100010
2022-10-01T01:13:10.089Z,100030
2022-10-01T01:14:09.689Z,100030
2022-10-01T01:15:01.145Z,100030
2022-10-01T01:16:04.922Z,100000
2022-10-01T01:17:03.243Z,100000
2022-10-01T01:18:01.164Z,100000
2022-10-01T01:19:03.641Z,100000
2022-10-01T01:20:10.101Z,100000
2022-10-01T01:21:10.094Z,99980
2022-10-01T01:22:02.280Z,99980
2022-10-01T01:23:00.165Z,99980
2022-10-01T01:24:00.164Z,99980
2022-10-01T01:25:07.818Z,99980
2022-10-01T01:26:04.592Z,99980
2022-10-01T01:27:07.546Z,99930
2022-10-01T01:28:10.155Z,99930
2022-10-01T01:29:03.359Z,99930
2022-10-01T01:30:02.310Z,99890
2022-10-01T01:31:04.503Z,99890
2022-10-01T01:32:06.205Z,99890
2022-10-01T01:33:02.681Z,99890
2022-10-01T01:34:04.145Z,99890
2022-10-01T01:35:02.562Z,99890
2022-10-01T01:36:02.713Z,99900
2022-10-01T01:37:03.460Z,99900
2022-10-01T01:38:01.896Z,99920
2022-10-01T01:39:02.212Z,99920
2022-10-01T01:40:01.919Z,99920
2022-10-01T01:41:00.978Z,99920
2022-10-01T01:42:03.221Z,99930
2022-10-01T01:43:02.471Z,99930
2022-10-01T01:44:01.650Z,99940
2022-10-01T01:45:01.085Z,99940
2022-10-01T01:46:02.499Z,99940
2022-10-01T01:47:01.488Z,99940
2022-10-01T01:48:02.092Z,99930
2022-10-01T01:49:01.291Z,99930
2022-10-01T01:50:01.274Z,99920
2022-10-01T01:51:07.422Z,99920
2022-10-01T01:52:10.088Z,99920
2022-10-01T01:53:00.180Z,99920
2022-10-01T01:54:00.239Z,99920
2022-10-01T01:55:00.317Z,99920
2022-10-01T01:56:00.572Z,99930
2022-10-01T01:57:00.366Z,99930
2022-10-01T01:58:00.161Z,99930
2022-10-01T01:59:00.206Z,99930
2022-10-01T02:00:00.308Z,99910
2022-10-01T02:01:01.012Z,99910
2022-10-01T02:02:00.392Z,99900
2022-10-01T02:03:00.635Z,99900
2022-10-01T02:04:03.281Z,99900
2022-10-01T02:05:03.805Z,99900
2022-10-01T02:06:07.598Z,99910
2022-10-01T02:07:08.980Z,99900
2022-10-01T02:08:01.144Z,99900
2022-10-01T02:09:07.191Z,99900
2022-10-01T02:10:05.835Z,99900
2022-10-01T02:11:04.040Z,99900
2022-10-01T02:12:10.094Z,99890
2022-10-01T02:13:10.085Z,99880
2022-10-01T02:14:10.170Z,99880
2022-10-01T02:15:06.950Z,99880
2022-10-01T02:16:07.137Z,99890
2022-10-01T02:17:07.676Z,99880
2022-10-01T02:18:10.090Z,99880
2022-10-01T02:19:04.131Z,99880
2022-10-01T02:20:05.359Z,99890
2022-10-01T02:21:08.946Z,99890
2022-10-01T02:22:08.532Z,99890
2022-10-01T02:23:04.401Z,99890
2022-10-01T02:24:01.239Z,99870
2022-10-01T02:25:02.661Z,99870
2022-10-01T02:26:03.310Z,99890
2022-10-01T02:27:02.478Z,99890
2022-10-01T02:28:04.787Z,99870
2022-10-01T02:29:02.735Z,99870
2022-10-01T02:30:02.354Z,99870
2022-10-01T02:31:00.971Z,99870
2022-10-01T02:32:01.060Z,99870
2022-10-01T02:33:01.359Z,99870
2022-10-01T02:34:01.152Z,99870
2022-10-01T02:35:00.959Z,99870
2022-10-01T02:36:01.600Z,99850
2022-10-01T02:37:02.915Z,99850
2022-10-01T02:38:02.474Z,99850
2022-10-01T02:39:01.355Z,99850
2022-10-01T02:40:01.616Z,99850
2022-10-01T02:41:01.111Z,99850
2022-10-01T02:42:01.825Z,99850
2022-10-01T02:43:05.018Z,99850
2022-10-01T02:44:03.096Z,99840
2022-10-01T02:45:02.167Z,99840
2022-10-01T02:46:03.722Z,99840
2022-10-01T02:47:03.406Z,99840
2022-10-01T02:48:01.931Z,99830
2022-10-01T02:49:00.167Z,99830
2022-10-01T02:50:01.325Z,99830
2022-10-01T02:51:08.765Z,99840
2022-10-01T02:52:10.084Z,99840
2022-10-01T02:53:05.891Z,99840
2022-10-01T02:54:02.098Z,99840
2022-10-01T02:55:06.436Z,99840
2022-10-01T02:56:01.389Z,99830
2022-10-01T02:57:00.400Z,99830
2022-10-01T02:58:00.196Z,99830
2022-10-01T02:59:00.151Z,99830
2022-10-01T03:00:01.383Z,99850
2022-10-01T03:01:00.148Z,99850
2022-10-01T03:02:00.318Z,99830
2022-10-01T03:03:00.223Z,99830
2022-10-01T03:04:00.267Z,99830
2022-10-01T03:05:00.495Z,99830
2022-10-01T03:07:00.153Z,99830
2022-10-01T03:08:00.288Z,99840
2022-10-01T03:09:00.225Z,99840
2022-10-01T03:10:00.915Z,99840
2022-10-01T03:11:00.150Z,99840
2022-10-01T03:12:00.604Z,99840
2022-10-01T03:13:00.259Z,99840
2022-10-01T03:14:00.148Z,99840
2022-10-01T03:15:00.237Z,99840
2022-10-01T03:16:00.363Z,99860
2022-10-01T03:17:00.163Z,99860
2022-10-01T03:18:00.151Z,99840
2022-10-01T03:19:00.150Z,99840
2022-10-01T03:20:00.280Z,99830
2022-10-01T03:21:00.159Z,99830
2022-10-01T03:22:00.181Z,99830
2022-10-01T03:23:00.148Z,99830
2022-10-01T03:24:00.184Z,99830
2022-10-01T03:25:00.145Z,99830
2022-10-01T03:26:00.155Z,99840
2022-10-01T03:27:00.151Z,99840
2022-10-01T03:28:00.289Z,99840
2022-10-01T03:29:00.167Z,99840
2022-10-01T03:30:00.186Z,99830
2022-10-01T03:31:08.716Z,99810
2022-10-01T03:32:00.209Z,99810
2022-10-01T03:33:00.154Z,99810
2022-10-01T03:34:00.150Z,99830
2022-10-01T03:35:00.174Z,99830
2022-10-01T03:36:00.410Z,99830
2022-10-01T03:37:00.190Z,99830
2022-10-01T03:38:00.147Z,99840
2022-10-01T03:39:00.177Z,99840
2022-10-01T03:40:00.248Z,99830
2022-10-01T03:41:00.154Z,99830
2022-10-01T03:42:00.560Z,99820
2022-10-01T03:43:00.151Z,99820
2022-10-01T03:44:00.653Z,99820
2022-10-01T03:45:00.163Z,99820
2022-10-01T03:46:00.277Z,99820
2022-10-01T03:47:00.161Z,99820
2022-10-01T03:48:00.263Z,99830
2022-10-01T03:49:00.198Z,99830
2022-10-01T03:50:00.174Z,99830
2022-10-01T03:51:00.159Z,99830
2022-10-01T03:52:00.496Z,99830
2022-10-01T03:53:00.167Z,99830
2022-10-01T03:54:00.162Z,99830
2022-10-01T03:55:00.171Z,99830
2022-10-01T03:56:00.288Z,99830
2022-10-01T03:57:00.801Z,99830
2022-10-01T03:58:00.152Z,99830
2022-10-01T03:59:00.544Z,99830
2022-10-01T04:00:00.291Z,99830
2022-10-01T04:01:00.166Z,99830
2022-10-01T04:02:00.289Z,99830
2022-10-01T04:03:00.225Z,99830
2022-10-01T04:04:00.370Z,99830
2022-10-01T04:05:00.163Z,99830
2022-10-01T04:06:00.149Z,99830
2022-10-01T04:07:00.154Z,99830
2022-10-01T04:08:00.150Z,99830
2022-10-01T04:09:00.194Z,99830
2022-10-01T04:10:00.216Z,99830
2022-10-01T04:11:00.159Z,99830
2022-10-01T04:12:00.271Z,99840
2022-10-01T04:13:00.191Z,99840
2022-10-01T04:14:00.167Z,99840
2022-10-01T04:15:00.149Z,99840
2022-10-01T04:16:00.891Z,99840
2022-10-01T04:17:00.158Z,99840
2022-10-01T04:18:00.651Z,99840
2022-10-01T04:19:00.420Z,99840
2022-10-01T04:21:00.167Z,99830
2022-10-01T04:22:00.165Z,99840
2022-10-01T04:23:00.563Z,99840
2022-10-01T04:24:00.285Z,99830
2022-10-01T04:25:00.149Z,99830
2022-10-01T04:26:00.397Z,99840
2022-10-01T04:27:00.151Z,99840
2022-10-01T04:28:01.209Z,99840
2022-10-01T04:29:00.158Z,99840
2022-10-01T04:30:00.161Z,99840
2022-10-01T04:31:00.231Z,99840
2022-10-01T04:32:00.390Z,99840
2022-10-01T04:33:00.628Z,99840
2022-10-01T04:34:00.175Z,99840
2022-10-01T04:35:00.581Z,99840
2022-10-01T04:36:00.283Z,99840
2022-10-01T04:37:00.144Z,99840
2022-10-01T04:38:02.671Z,99840
2022-10-01T04:39:02.560Z,99840
2022-10-01T04:40:00.290Z,99850
2022-10-01T04:41:00.181Z,99850
2022-10-01T04:42:00.148Z,99850
2022-10-01T04:43:00.814Z,99850
2022-10-01T04:44:00.626Z,99850
2022-10-01T04:45:00.150Z,99850
2022-10-01T04:46:00.148Z,99860
2022-10-01T04:47:00.290Z,99860
2022-10-01T04:48:00.252Z,99850
2022-10-01T04:49:00.145Z,99850
2022-10-01T04:50:00.199Z,99860
2022-10-01T04:51:00.149Z,99860
2022-10-01T04:52:00.242Z,99860
2022-10-01T04:53:00.156Z,99860
2022-10-01T04:54:00.147Z,99860
2022-10-01T04:55:00.150Z,99860
2022-10-01T04:56:00.264Z,99870
2022-10-01T04:57:00.146Z,99870
2022-10-01T04:58:00.157Z,99870
2022-10-01T04:59:00.190Z,99870
2022-10-01T05:00:00.370Z,99870
2022-10-01T05:01:02.152Z,99870
2022-10-01T05:02:00.281Z,99880
2022-10-01T05:03:00.168Z,99880
2022-10-01T05:04:00.286Z,99880
2022-10-01T05:05:00.805Z,99880
2022-10-01T05:06:00.324Z,99880
2022-10-01T05:07:00.180Z,99880
2022-10-01T05:08:00.419Z,99880
2022-10-01T05:09:00.194Z,99880
2022-10-01T05:10:00.521Z,99880
2022-10-01T05:11:00.147Z,99880
2022-10-01T05:12:00.282Z,99880
2022-10-01T05:13:00.157Z,99880
2022-10-01T05:14:00.157Z,99880
2022-10-01T05:15:00.180Z,99880
2022-10-01T05:16:00.320Z,99880
2022-10-01T05:17:00.165Z,99880
2022-10-01T05:18:00.293Z,99890
2022-10-01T05:19:00.162Z,99890
2022-10-01T05:20:01.058Z,99900
2022-10-01T05:21:04.233Z,99900
2022-10-01T05:22:00.157Z,99890
2022-10-01T05:23:00.147Z,99890
2022-10-01T05:24:00.153Z,99900
2022-10-01T05:25:00.188Z,99900
2022-10-01T05:26:00.161Z,99900
2022-10-01T05:27:00.183Z,99900
2022-10-01T05:28:00.756Z,99900
2022-10-01T05:29:00.235Z,99900
2022-10-01T05:30:00.151Z,99900
2022-10-01T05:31:01.082Z,99900
2022-10-01T05:32:00.291Z,99900
2022-10-01T05:33:01.102Z,99900
2022-10-01T05:34:00.187Z,99910
2022-10-01T05:35:00.152Z,99910
2022-10-01T05:36:00.260Z,99910
2022-10-01T05:37:00.502Z,99910
2022-10-01T05:38:00.588Z,99910
2022-10-01T05:39:00.244Z,99910
2022-10-01T05:40:00.281Z,99910
2022-10-01T05:41:00.144Z,99910
2022-10-01T05:42:05.380Z,99920
2022-10-01T05:43:00.389Z,99920
2022-10-01T05:44:00.295Z,99920
2022-10-01T05:45:00.203Z,99920
2022-10-01T05:46:01.148Z,99920
2022-10-01T05:47:00.147Z,99920
2022-10-01T05:48:01.349Z,99930
2022-10-01T05:49:00.194Z,99930
2022-10-01T05:50:00.170Z,99930
2022-10-01T05:51:00.142Z,99930
2022-10-01T05:52:00.291Z,99940
2022-10-01T05:53:00.722Z,99940
2022-10-01T05:54:00.164Z,99930
2022-10-01T05:55:00.162Z,99930
2022-10-01T05:56:00.280Z,99940
2022-10-01T05:57:00.152Z,99940
2022-10-01T05:58:01.508Z,99950
2022-10-01T05:59:00.165Z,99950
2022-10-01T06:00:00.259Z,99940
2022-10-01T06:01:00.171Z,99940
2022-10-01T06:02:00.338Z,99950
2022-10-01T06:03:01.031Z,99950
2022-10-01T06:04:00.288Z,99950
2022-10-01T06:05:00.159Z,99950
2022-10-01T06:06:00.170Z,99950
2022-10-01T06:07:00.149Z,99950
2022-10-01T06:08:00.358Z,99950
2022-10-01T06:09:00.175Z,99950
2022-10-01T06:10:00.194Z,99950
2022-10-01T06:11:01.296Z,99950
2022-10-01T06:12:00.270Z,99950
2022-10-01T06:13:00.200Z,99950
2022-10-01T06:14:00.146Z,99950
2022-10-01T06:15:00.158Z,99950
2022-10-01T06:16:00.374Z,99960
2022-10-01T06:17:00.153Z,99960
2022-10-01T06:18:00.796Z,99960
2022-10-01T06:19:00.225Z,99960
2022-10-01T06:20:00.332Z,99960
2022-10-01T06:21:00.151Z,99960
2022-10-01T06:22:00.164Z,99970
2022-10-01T06:23:00.199Z,99970
2022-10-01T06:24:00.183Z,99970
2022-10-01T06:25:00.146Z,99970
2022-10-01T06:26:00.705Z,99970
2022-10-01T06:27:00.153Z,99970
2022-10-01T06:28:00.319Z,99970
2022-10-01T06:29:00.155Z,99970
2022-10-01T06:30:00.169Z,99970
2022-10-01T06:31:00.869Z,99970
2022-10-01T06:32:00.365Z,99980
2022-10-01T06:33:02.800Z,99980
2022-10-01T06:34:00.156Z,99980
2022-10-01T06:35:00.163Z,99980
2022-10-01T06:36:00.262Z,99980
2022-10-01T06:37:00.147Z,99980
2022-10-01T06:38:00.476Z,99980
2022-10-01T06:39:00.205Z,99980
2022-10-01T06:40:00.187Z,99970
2022-10-01T06:41:01.047Z,99970
2022-10-01T06:42:00.148Z,99970
2022-10-01T06:43:00.151Z,99970
2022-10-01T06:44:00.299Z,99980
2022-10-01T06:45:00.155Z,99980
2022-10-01T06:46:00.767Z,99980
2022-10-01T06:47:00.193Z,99980
2022-10-01T06:48:00.378Z,99980
2022-10-01T06:49:00.143Z,99980
2022-10-01T06:50:00.177Z,99980
2022-10-01T06:51:00.149Z,99980
2022-10-01T06:52:00.340Z,99980
2022-10-01T06:53:00.520Z,99980
2022-10-01T06:54:00.152Z,99980
2022-10-01T06:55:00.175Z,99980
2022-10-01T06:56:04.613Z,99980
2022-10-01T06:57:00.142Z,99980
2022-10-01T06:58:01.145Z,99980
2022-10-01T06:59:00.158Z,99980
2022-10-01T07:00:00.270Z,99980
2022-10-01T07:01:00.809Z,99980
2022-10-01T07:02:00.218Z,99990
2022-10-01T07:03:00.588Z,99990
2022-10-01T07:04:00.274Z,99990
2022-10-01T07:05:00.177Z,99990
2022-10-01T07:06:01.428Z,99990
2022-10-01T07:07:00.143Z,99990
2022-10-01T07:08:00.172Z,100000
2022-10-01T07:09:00.152Z,100000
2022-10-01T07:10:00.972Z,100000
2022-10-01T07:11:01.107Z,100000
2022-10-01T07:12:00.281Z,100000
2022-10-01T07:13:08.287Z,100000
2022-10-01T07:14:00.146Z,100000
2022-10-01T07:15:00.605Z,100000
2022-10-01T07:16:01.690Z,100010
2022-10-01T07:17:00.147Z,100010
2022-10-01T07:18:00.261Z,100010
2022-10-01T07:19:00.146Z,100010
2022-10-01T07:20:00.233Z,100020
2022-10-01T07:21:00.172Z,100020
2022-10-01T07:22:00.145Z,100020
2022-10-01T07:23:00.695Z,100020
2022-10-01T07:24:00.231Z,100010
2022-10-01T07:25:00.157Z,100010
2022-10-01T07:26:03.429Z,100010
2022-10-01T07:27:05.031Z,100010
2022-10-01T07:28:01.512Z,100020
2022-10-01T07:29:00.143Z,100020
2022-10-01T07:30:00.224Z,100020
2022-10-01T07:31:01.281Z,100020
2022-10-01T07:32:00.800Z,100020
2022-10-01T07:33:00.152Z,100020
2022-10-01T07:34:00.148Z,100030
2022-10-01T07:35:00.255Z,100030
2022-10-01T07:36:02.561Z,100030
2022-10-01T07:37:00.248Z,100030
2022-10-01T07:38:02.148Z,100030
2022-10-01T07:39:00.148Z,100030
2022-10-01T07:40:04.139Z,100030
2022-10-01T07:41:00.613Z,100030
2022-10-01T07:42:00.156Z,100030
2022-10-01T07:43:00.155Z,100030
2022-10-01T07:44:00.199Z,100030
2022-10-01T07:45:00.170Z,100030
2022-10-01T07:46:00.398Z,100040
2022-10-01T07:47:00.279Z,100040
2022-10-01T07:48:01.030Z,100040
2022-10-01T07:49:00.151Z,100040
2022-10-01T07:50:00.188Z,100040
2022-10-01T07:51:00.175Z,100040
2022-10-01T07:52:00.273Z,100040
2022-10-01T07:53:00.203Z,100040
2022-10-01T07:54:00.660Z,100040
2022-10-01T07:55:00.158Z,100040
2022-10-01T07:56:00.523Z,100050
2022-10-01T07:57:00.167Z,100050
2022-10-01T07:58:00.151Z,100060
2022-10-01T07:59:00.576Z,100060
2022-10-01T08:00:00.278Z,100060
2022-10-01T08:01:02.399Z,100060
2022-10-01T08:02:00.195Z,100070
2022-10-01T08:03:00.763Z,100070
2022-10-01T08:04:00.385Z,100070
2022-10-01T08:05:00.183Z,100070
2022-10-01T08:06:00.209Z,100070
2022-10-01T08:07:00.183Z,100070
2022-10-01T08:08:01.890Z,100070
2022-10-01T08:09:00.145Z,100070
2022-10-01T08:10:00.170Z,100080
2022-10-01T08:11:01.618Z,100080
2022-10-01T08:12:00.263Z,100070
2022-10-01T08:13:00.716Z,100070
2022-10-01T08:14:00.149Z,100080
2022-10-01T08:15:00.414Z,100080
2022-10-01T08:16:01.946Z,100080
2022-10-01T08:17:00.247Z,100080
2022-10-01T08:18:00.864Z,100090
2022-10-01T08:19:00.144Z,100090
2022-10-01T08:20:00.291Z,100080
2022-10-01T08:21:00.312Z,100080
2022-10-01T08:22:00.165Z,100090
2022-10-01T08:23:02.178Z,100090
2022-10-01T08:24:01.243Z,100100
2022-10-01T08:25:00.177Z,100100
2022-10-01T08:26:01.300Z,100100
2022-10-01T08:27:00.148Z,100100
2022-10-01T08:28:00.360Z,100100
2022-10-01T08:29:00.152Z,100100
2022-10-01T08:30:00.182Z,100110
2022-10-01T08:31:04.294Z,100110
2022-10-01T08:32:00.296Z,100110
2022-10-01T08:33:00.185Z,100110
2022-10-01T08:34:00.146Z,100110
2022-10-01T08:35:00.212Z,100110
2022-10-01T08:36:01.456Z,100120
2022-10-01T08:37:00.261Z,100120
2022-10-01T08:38:00.899Z,100120
2022-10-01T08:39:00.149Z,100120
2022-10-01T08:40:00.302Z,100130
2022-10-01T08:41:06.090Z,100130
2022-10-01T08:42:00.129Z,100130
2022-10-01T08:43:02.712Z,100130
2022-10-01T08:44:01.365Z,100120
2022-10-01T08:45:03.469Z,100120
2022-10-01T08:46:02.200Z,100120
2022-10-01T08:47:05.229Z,100120
2022-10-01T08:48:04.306Z,100120
2022-10-01T08:49:10.101Z,100120
2022-10-01T08:50:10.091Z,100120
2022-10-01T08:51:04.826Z,100120
2022-10-01T08:52:02.312Z,100120
2022-10-01T08:53:01.740Z,100120
2022-10-01T08:54:03.403Z,100120
2022-10-01T08:55:01.145Z,100120
2022-10-01T08:56:01.218Z,100120
2022-10-01T08:57:01.331Z,100120
2022-10-01T08:58:01.725Z,100120
2022-10-01T08:59:03.286Z,100120
2022-10-01T09:00:01.613Z,100120
2022-10-01T09:01:00.210Z,100120
2022-10-01T09:02:00.286Z,100130
2022-10-01T09:03:03.855Z,100130
2022-10-01T09:04:00.295Z,100120
2022-10-01T09:05:04.701Z,100120
2022-10-01T09:06:07.561Z,100120
2022-10-01T09:07:09.349Z,100130
2022-10-01T09:08:00.137Z,100130
2022-10-01T09:09:03.403Z,100130
2022-10-01T09:10:08.549Z,100130
2022-10-01T09:11:03.698Z,100130
2022-10-01T09:12:00.152Z,100130
2022-10-01T09:13:10.087Z,100140
2022-10-01T09:14:01.143Z,100140
2022-10-01T09:15:05.886Z,100140
2022-10-01T09:16:00.256Z,100140
2022-10-01T09:17:07.323Z,100140
2022-10-01T09:18:10.094Z,100140
2022-10-01T09:19:00.151Z,100140
2022-10-01T09:20:00.279Z,100140
2022-10-01T09:21:00.177Z,100140
2022-10-01T09:22:04.957Z,100140
2022-10-01T09:23:10.089Z,100150
2022-10-01T09:24:02.342Z,100150
2022-10-01T09:25:10.081Z,100150
2022-10-01T09:26:00.340Z,100150
2022-10-01T09:27:00.232Z,100150
2022-10-01T09:28:10.187Z,100150
2022-10-01T09:29:01.081Z,100150
2022-10-01T09:30:02.180Z,100160
2022-10-01T09:31:10.156Z,100160
2022-10-01T09:32:01.822Z,100160
2022-10-01T09:33:03.618Z,100160
2022-10-01T09:34:02.670Z,100160
2022-10-01T09:35:04.670Z,100160
2022-10-01T09:36:06.530Z,100160
2022-10-01T09:37:10.086Z,100160
2022-10-01T09:38:02.565Z,100160
2022-10-01T09:39:01.147Z,100160
2022-10-01T09:40:10.092Z,100160
2022-10-01T09:41:00.187Z,100160
2022-10-01T09:42:00.184Z,100170
2022-10-01T09:43:01.487Z,100170
2022-10-01T09:44:00.238Z,100160
2022-10-01T09:45:00.263Z,100160
2022-10-01T09:46:01.500Z,100160
2022-10-01T09:47:00.182Z,100160
2022-10-01T09:48:03.876Z,100160
2022-10-01T09:49:07.048Z,100160
2022-10-01T09:50:02.530Z,100160
2022-10-01T09:51:10.085Z,100170
2022-10-01T09:52:03.858Z,100170
2022-10-01T09:53:00.191Z,100170
2022-10-01T09:54:04.048Z,100160
2022-10-01T09:55:02.074Z,100160
2022-10-01T09:56:04.253Z,100170
2022-10-01T09:57:06.418Z,100170
2022-10-01T09:58:01.140Z,100170
2022-10-01T09:59:02.645Z,100170
2022-10-01T10:00:01.177Z,100180
2022-10-01T10:01:00.254Z,100180
2022-10-01T10:02:01.421Z,100170
2022-10-01T10:03:00.253Z,100170
2022-10-01T10:04:00.175Z,100170
2022-10-01T10:05:02.196Z,100170
2022-10-01T10:06:00.279Z,100170
2022-10-01T10:07:02.492Z,100170
2022-10-01T10:08:03.457Z,100180
2022-10-01T10:09:00.542Z,100180
2022-10-01T10:10:08.273Z,100180
2022-10-01T10:11:01.176Z,100180
2022-10-01T10:12:00.599Z,100180
2022-10-01T10:13:01.785Z,100180
2022-10-01T10:14:01.023Z,100180
2022-10-01T10:15:06.618Z,100180
2022-10-01T10:16:06.008Z,100180
2022-10-01T10:17:04.324Z,100180
2022-10-01T10:18:05.742Z,100180
2022-10-01T10:19:01.842Z,100180
2022-10-01T10:20:00.234Z,100180
2022-10-01T10:21:03.795Z,100180
2022-10-01T10:22:10.086Z,100180
2022-10-01T10:23:10.090Z,100190
2022-10-01T10:24:01.593Z,100190
2022-10-01T10:25:09.715Z,100190
2022-10-01T10:26:01.861Z,100190
2022-10-01T10:27:02.048Z,100190
2022-10-01T10:28:01.762Z,100190
2022-10-01T10:29:01.200Z,100190
2022-10-01T10:30:01.591Z,100200
2022-10-01T10:31:00.337Z,100200
2022-10-01T10:32:05.585Z,100200
2022-10-01T10:33:03.124Z,100200
2022-10-01T10:34:10.088Z,100210
2022-10-01T10:35:03.432Z,100210
2022-10-01T10:36:02.092Z,100210
2022-10-01T10:37:02.062Z,100210
2022-10-01T10:38:00.343Z,100210
2022-10-01T10:39:00.458Z,100210
2022-10-01T10:40:00.577Z,100210
2022-10-01T10:41:00.765Z,100210
2022-10-01T10:42:00.826Z,100220
2022-10-01T10:43:00.255Z,100220
2022-10-01T10:44:01.994Z,100220
2022-10-01T10:45:01.569Z,100220
2022-10-01T10:46:00.830Z,100220
2022-10-01T10:47:01.134Z,100220
2022-10-01T10:48:01.544Z,100220
2022-10-01T10:49:10.084Z,100230
2022-10-01T10:50:02.893Z,100230
2022-10-01T10:51:01.185Z,100230
2022-10-01T10:52:00.573Z,100230
2022-10-01T10:53:10.085Z,100230
2022-10-01T10:54:01.071Z,100230
2022-10-01T10:55:01.166Z,100230
2022-10-01T10:56:01.633Z,100230
2022-10-01T10:57:10.092Z,100240
2022-10-01T10:58:10.091Z,100240
2022-10-01T10:59:05.266Z,100240
2022-10-01T11:00:02.454Z,100250
2022-10-01T11:01:05.324Z,100250
2022-10-01T11:02:01.578Z,100260
2022-10-01T11:03:02.215Z,100260
2022-10-01T11:04:00.425Z,100250
2022-10-01T11:05:10.094Z,100260
2022-10-01T11:06:07.750Z,100260
2022-10-01T11:07:00.209Z,100260
2022-10-01T11:08:02.406Z,100260
2022-10-01T11:09:04.473Z,100260
2022-10-01T11:10:01.147Z,100260
2022-10-01T11:11:00.140Z,100260
2022-10-01T11:12:10.105Z,100260
2022-10-01T11:13:10.090Z,100270
2022-10-01T11:14:10.094Z,100270
2022-10-01T11:15:03.412Z,100270
2022-10-01T11:16:10.140Z,100270
2022-10-01T11:17:10.094Z,100270
2022-10-01T11:18:00.132Z,100270
2022-10-01T11:19:10.092Z,100270
2022-10-01T11:20:07.974Z,100270
2022-10-01T11:21:10.091Z,100280
2022-10-01T11:22:07.237Z,100280
2022-10-01T11:23:10.103Z,100280
2022-10-01T11:24:01.142Z,100280
2022-10-01T11:25:03.398Z,100280
2022-10-01T11:26:00.137Z,100270
2022-10-01T11:27:04.598Z,100270
2022-10-01T11:28:10.110Z,100280
2022-10-01T11:29:03.397Z,100280
2022-10-01T11:30:02.985Z,100300
2022-10-01T11:31:07.553Z,100300
2022-10-01T11:32:04.618Z,100300
2022-10-01T11:33:10.091Z,100290
2022-10-01T11:34:10.092Z,100290
2022-10-01T11:35:09.493Z,100300
2022-10-01T11:36:04.911Z,100300
2022-10-01T11:37:10.092Z,100290
2022-10-01T11:38:10.087Z,100290
2022-10-01T11:39:02.635Z,100290
2022-10-01T11:40:07.041Z,100300
2022-10-01T11:41:06.209Z,100300
2022-10-01T11:42:00.140Z,100300
2022-10-01T11:43:04.253Z,100300
2022-10-01T11:44:03.117Z,100310
2022-10-01T11:45:04.887Z,100310
2022-10-01T11:46:06.815Z,100300
2022-10-01T11:47:02.725Z,100300
2022-10-01T11:48:05.390Z,100300
2022-10-01T11:49:05.149Z,100300
2022-10-01T11:50:03.479Z,100310
2022-10-01T11:51:04.491Z,100310
2022-10-01T11:52:06.111Z,100310
2022-10-01T11:53:06.420Z,100310
2022-10-01T11:54:04.037Z,100320
2022-10-01T11:55:05.064Z,100320
2022-10-01T11:56:02.927Z,100320
2022-10-01T11:57:02.772Z,100320
2022-10-01T11:58:10.092Z,100320
2022-10-01T11:59:01.145Z,100320
2022-10-01T12:00:04.458Z,100310
2022-10-01T12:01:02.859Z,100310
2022-10-01T12:02:10.172Z,100320
2022-10-01T12:03:01.105Z,100320
2022-10-01T12:04:02.617Z,100330
2022-10-01T12:05:03.565Z,100330
2022-10-01T12:06:00.841Z,100340
2022-10-01T12:07:10.091Z,100350
2022-10-01T12:08:05.353Z,100350
2022-10-01T12:09:10.092Z,100360
2022-10-01T12:10:10.253Z,100360
2022-10-01T12:11:05.622Z,100360
2022-10-01T12:12:03.657Z,100350
2022-10-01T12:13:10.093Z,100360
2022-10-01T12:14:02.319Z,100360
2022-10-01T12:15:06.238Z,100360
2022-10-01T12:16:00.183Z,100360
2022-10-01T12:17:10.113Z,100370
2022-10-01T12:18:05.362Z,100370
2022-10-01T12:19:02.325Z,100370
2022-10-01T12:20:01.495Z,100370
2022-10-01T12:21:02.650Z,100370
2022-10-01T12:22:10.093Z,100360
2022-10-01T12:23:02.614Z,100360
2022-10-01T12:24:03.504Z,100370
2022-10-01T12:25:00.244Z,100370
2022-10-01T12:26:01.144Z,100370
2022-10-01T12:27:09.054Z,100370
2022-10-01T12:28:05.576Z,100370
2022-10-01T12:29:10.084Z,100370
2022-10-01T12:30:02.238Z,100370
2022-10-01T12:31:05.571Z,100370
2022-10-01T12:32:10.102Z,100380
2022-10-01T12:33:10.089Z,100380
2022-10-01T12:34:10.096Z,100380
2022-10-01T12:35:00.136Z,100380
2022-10-01T12:36:10.094Z,100390
2022-10-01T12:37:07.893Z,100380
2022-10-01T12:38:01.147Z,100380
2022-10-01T12:39:06.883Z,100380
2022-10-01T12:40:10.095Z,100390
2022-10-01T12:41:10.089Z,100390